Flight Track Log - Related Links

Times and Time Zones

All times are in EDT time to prevent confusion due to time zone crossing. See the TPA723 flight status page for this flight to view local times or setup timezone preferences in your user account.

Time Position Orientation Groundspeed Altitude Reporting Facility
EDT Latitude Longitude Course Direction KTS MPH feet Rate Location/Type
Sat 11:26:30 AM 25.7836 -80.2742 107° East 188 216 700  Level Miami Center
Sat 11:27:07 AM 25.7739 -80.2392 107° East 204 235 1,800 2,382 Climbing Miami Center
Sat 11:28:46 AM 25.7389 -80.1206 108° East 256 295 6,100 1,925 Climbing Miami Center
Sat 11:29:46 AM 25.7200 -80.0369 104° East 268 308 6,900 1,650 Climbing Miami Center
Sat 11:30:46 AM 25.7008 -79.9511 104° East 273 314 9,400 2,050 Climbing Miami Center
Sat 11:31:46 AM 25.6819 -79.8561 102° East 293 337 11,000 1,750 Climbing Miami Center
Sat 11:32:46 AM 25.6550 -79.7425 105° East 335 386 12,900 2,250 Climbing Miami Center
Sat 11:33:46 AM 25.6303 -79.6200 103° East 379 436 15,500 2,450 Climbing Miami Center
Sat 11:34:46 AM 25.6011 -79.4925 104° East 401 461 17,800 2,400 Climbing Miami Center
Sat 11:35:46 AM 25.5700 -79.3628 105° East 426 490 20,300 2,300 Climbing Miami Center
Sat 11:36:46 AM 25.5431 -79.2264 102° East 437 503 22,400 1,950 Climbing Miami Center
Sat 11:37:46 AM 25.5117 -79.0853 104° East 454 522 24,200 1,800 Climbing Miami Center
Sat 11:38:46 AM 25.4364 -78.9597 124° Southeast 469 540 26,000 1,700 Climbing Miami Center
Sat 11:39:46 AM 25.3375 -78.8453 134° Southeast 485 558 27,600 1,850 Climbing Miami Center
Sat 11:40:46 AM 25.2472 -78.7244 130° Southeast 504 580 29,700 2,100 Climbing Miami Center
Sat 11:41:46 AM 25.1525 -78.6083 132° Southeast 511 588 31,800 1,850 Climbing Miami Center
Sat 11:42:46 AM 25.0556 -78.4897 132° Southeast 511 588 33,400 1,350 Climbing Miami Center
Sat 11:43:46 AM 24.9586 -78.3717 132° Southeast 511 588 34,500 850 Climbing Miami Center
Sat 11:44:46 AM 24.8617 -78.2514 132° Southeast 517 595 35,100 300 Climbing Miami Center
Sat 11:45:46 AM 24.7603 -78.1267 132° Southeast 528 608 35,100 -50 Level Miami Center
Sat 11:46:46 AM 24.6569 -78.0044 133° Southeast 533 613 35,000 -50 Descending Miami Center
Sat 11:47:46 AM 24.5594 -77.8825 131° Southeast 538 619 35,000  Level Miami Center
Sat 11:48:46 AM 24.4600 -77.7628 132° Southeast 533 613 35,000  Level Miami Center
Sat 11:49:46 AM 24.3644 -77.6481 132° Southeast 528 608 35,000  Level Miami Center
Sat 11:50:46 AM 24.2689 -77.5267 131° Southeast 523 602 35,000  Level Miami Center
Sat 11:51:46 AM 24.1733 -77.4147 133° Southeast 518 596 35,000  Level Miami Center
Sat 11:52:46 AM 24.0775 -77.3006 133° Southeast 518 596 35,000  Level Miami Center
Sat 11:53:46 AM 23.9817 -77.1842 132° Southeast 518 596 35,000 50 Level Miami Center
Sat 11:54:46 AM 23.8858 -77.0656 131° Southeast 518 596 35,100 50 Climbing Miami Center
Sat 11:55:46 AM 23.7917 -76.9519 132° Southeast 512 589 35,100  Level Miami Center
Sat 11:56:46 AM 23.6936 -76.8361 133° Southeast 512 589 35,100  Level Miami Center
Sat 11:57:46 AM 23.5975 -76.7228 133° Southeast 512 589 35,100  Level Miami Center
Sat 11:58:46 AM 23.4989 -76.6075 133° Southeast 517 595 35,100  Level Miami Center
Sat 11:59:46 AM 23.4006 -76.4900 132° Southeast 517 595 35,100  Level Miami Center
Sat 12:00:46 PM 23.3019 -76.3747 133° Southeast 517 595 35,100  Level Miami Center
Sat 12:01:46 PM 23.2033 -76.2578 133° Southeast 517 595 35,100  Level Miami Center
Sat 12:02:46 PM 23.1047 -76.1406 132° Southeast 517 595 35,100  Level Miami Center
Sat 12:03:46 PM 22.9911 -76.0125 134° Southeast 523 602 35,100  Level Miami Center
Sat 12:04:46 PM 22.8942 -75.8961 132° Southeast 523 602 35,100  Level Miami Center
Sat 12:05:46 PM 22.7933 -75.7797 133° Southeast 523 602 35,100  Level Miami Center
Sat 12:06:46 PM 22.6961 -75.6633 132° Southeast 523 602 35,100  Level Miami Center
Sat 12:07:46 PM 22.5928 -75.5472 134° Southeast 523 602 35,100  Level Miami Center
Sat 12:08:46 PM 22.4958 -75.4336 133° Southeast 523 602 35,100  Level Miami Center
Sat 12:09:46 PM 22.3964 -75.3181 133° Southeast 528 608 35,100 -50 Level Miami Center
Sat 12:10:46 PM 22.2950 -75.2025 133° Southeast 528 608 35,000 -50 Descending Miami Center
Sat 12:11:46 PM 22.1975 -75.0914 133° Southeast 523 602 35,000  Level Miami Center
Sat 12:12:46 PM 22.0897 -74.9875 138° Southeast 518 596 35,000 50 Level Miami Center
Sat 12:13:46 PM 21.9800 -74.8883 140° Southeast 518 596 35,100  Climbing Miami Center
Sat 12:14:46 PM 21.8722 -74.7869 139° Southeast 518 596 35,000  Descending Miami Center
Sat 12:15:46 PM 21.7769 -74.6992 139° Southeast 512 589 35,100  Climbing Miami Center
Sat 12:16:46 PM 21.6561 -74.5806 138° Southeast 521 600 35,000 -50 Descending Miami Center
Sat 12:17:46 PM 21.5503 -74.4842 140° Southeast 516 594 35,000  Level Miami Center
Sat 12:18:46 PM 21.4403 -74.3856 140° Southeast 516 594 35,000  Level Miami Center
Sat 12:19:46 PM 21.3300 -74.2853 140° Southeast 511 588 35,000  Level Miami Center
Sat 12:20:46 PM 21.2261 -74.1892 139° Southeast 511 588 35,000  Level Miami Center
Sat 12:21:46 PM 21.1136 -74.0892 140° Southeast 511 588 35,000  Level Miami Center
Sat 12:22:46 PM 21.0053 -73.9892 139° Southeast 511 588 35,000  Level Miami Center
Sat 12:23:46 PM 20.8969 -73.8936 141° Southeast 511 588 35,000  Level Miami Center
Sat 12:24:46 PM 20.7844 -73.7939 140° Southeast 511 588 35,000  Level Miami Center
Sat 12:25:46 PM 20.6994 -73.7161 139° Southeast 511 588 35,000  Level Miami Center
Sat 12:26:46 PM 20.5803 -73.6081 140° Southeast 511 588 35,000  Level Miami Center
Sat 12:27:46 PM 20.4719 -73.5111 140° Southeast 511 588 35,000  Level Miami Center
Sat 12:28:46 PM 20.3614 -73.4119 140° Southeast 511 588 35,000  Level Miami Center
Sat 12:29:46 PM 20.2506 -73.3131 140° Southeast 511 588 35,000  Level Miami Center
Sat 12:30:46 PM 20.1400 -73.2186 141° Southeast 517 595 35,000  Level Miami Center
Sat 12:31:46 PM 20.0089 -73.1428 151° Southeast 517 595 35,000  Level Miami Center
Sat 12:33:00 PM 19.8684 -73.0647 152° Southeast  Level FlightAware Approximate
Sat 12:40:00 PM 19.0703 -72.6244 152° Southeast  Level FlightAware Approximate
Sat 12:41:00 PM 18.9562 -72.5618 153° Southeast  Level FlightAware Approximate
Sat 12:42:00 PM 18.8421 -72.4993 153° Southeast  Level FlightAware Approximate
Sat 12:43:00 PM 18.7279 -72.4370 153° Southeast  Level FlightAware Approximate
Sat 12:44:00 PM 18.6138 -72.3746 153° Southeast  Level FlightAware Approximate
Sat 12:45:00 PM 18.4996 -72.3124 153° Southeast  Level FlightAware Approximate
Sat 12:46:00 PM 18.3854 -72.2503 153° Southeast  Level FlightAware Approximate
Sat 12:47:00 PM 18.2712 -72.1882 153° Southeast  Level FlightAware Approximate
Sat 12:48:00 PM 18.1569 -72.1263 153° Southeast  Level FlightAware Approximate
Sat 12:49:00 PM 18.0427 -72.0644 153° Southeast  Level FlightAware Approximate
Sat 12:50:00 PM 17.9284 -72.0025 153° Southeast  Level FlightAware Approximate
Sat 12:51:00 PM 17.8141 -71.9408 153° Southeast  Level FlightAware Approximate
Sat 12:52:00 PM 17.6998 -71.8792 153° Southeast  Level FlightAware Approximate
Sat 12:53:00 PM 17.5854 -71.8176 153° Southeast  Level FlightAware Approximate
Sat 12:54:00 PM 17.4711 -71.7561 153° Southeast  Level FlightAware Approximate
Sat 12:55:00 PM 17.3567 -71.6946 153° Southeast  Level FlightAware Approximate
Sat 12:56:00 PM 17.2425 -71.6329 153° Southeast  Level FlightAware Approximate
Sat 12:57:00 PM 17.1283 -71.5712 153° Southeast  Level FlightAware Approximate
Sat 12:58:00 PM 17.0140 -71.5097 153° Southeast  Level FlightAware Approximate
Sat 12:59:00 PM 16.8998 -71.4481 153° Southeast  Level FlightAware Approximate
Sat 01:00:00 PM 16.7855 -71.3867 153° Southeast  Level FlightAware Approximate
Sat 01:01:00 PM 16.6712 -71.3253 153° Southeast  Level FlightAware Approximate
Sat 01:02:00 PM 16.5569 -71.2641 153° Southeast  Level FlightAware Approximate
Sat 01:03:00 PM 16.4426 -71.2029 153° Southeast  Level FlightAware Approximate
Sat 01:04:00 PM 16.3282 -71.1417 153° Southeast  Level FlightAware Approximate
Sat 01:05:00 PM 16.2139 -71.0806 153° Southeast  Level FlightAware Approximate
Sat 01:06:00 PM 16.0995 -71.0196 153° Southeast  Level FlightAware Approximate
Sat 01:07:00 PM 15.9850 -70.9588 153° Southeast  Level FlightAware Approximate
Sat 01:08:00 PM 15.8703 -70.8986 153° Southeast  Level FlightAware Approximate
Sat 01:09:00 PM 15.7556 -70.8384 153° Southeast  Level FlightAware Approximate
Sat 01:10:00 PM 15.6408 -70.7783 153° Southeast  Level FlightAware Approximate
Sat 01:11:00 PM 15.5260 -70.7183 153° Southeast  Level FlightAware Approximate
Sat 01:12:00 PM 15.4113 -70.6583 153° Southeast  Level FlightAware Approximate
Sat 01:13:00 PM 15.2965 -70.5984 153° Southeast  Level FlightAware Approximate
Sat 01:14:00 PM 15.1816 -70.5386 153° Southeast  Level FlightAware Approximate
Sat 01:15:00 PM 15.0668 -70.4788 153° Southeast  Level FlightAware Approximate
Sat 01:16:00 PM 14.9520 -70.4191 153° Southeast  Level FlightAware Approximate
Sat 01:17:00 PM 14.8371 -70.3594 153° Southeast  Level FlightAware Approximate
Sat 01:18:00 PM 14.7222 -70.2999 153° Southeast  Level FlightAware Approximate
Sat 01:19:00 PM 14.6073 -70.2403 153° Southeast  Level FlightAware Approximate
Sat 01:20:00 PM 14.4924 -70.1809 153° Southeast  Level FlightAware Approximate
Sat 01:21:00 PM 14.3775 -70.1215 153° Southeast  Level FlightAware Approximate
Sat 01:22:00 PM 14.2625 -70.0622 153° Southeast  Level FlightAware Approximate
Sat 01:23:00 PM 14.1476 -70.0029 153° Southeast  Level FlightAware Approximate
Sat 01:24:00 PM 14.0326 -69.9437 153° Southeast  Level FlightAware Approximate
Sat 01:25:00 PM 13.9176 -69.8845 153° Southeast  Level FlightAware Approximate
Sat 01:26:00 PM 13.8026 -69.8254 153° Southeast  Level FlightAware Approximate
Sat 01:27:00 PM 13.6876 -69.7664 153° Southeast  Level FlightAware Approximate
Sat 01:28:00 PM 13.5726 -69.7074 154° Southeast  Level FlightAware Approximate
Sat 01:29:00 PM 13.4575 -69.6485 154° Southeast  Level FlightAware Approximate
Sat 01:30:00 PM 13.3425 -69.5896 154° Southeast  Level FlightAware Approximate
Sat 01:31:00 PM 13.2274 -69.5308 154° Southeast  Level FlightAware Approximate
Sat 01:32:00 PM 13.1123 -69.4721 154° Southeast  Level FlightAware Approximate
Sat 01:33:00 PM 12.9972 -69.4134 154° Southeast  Level FlightAware Approximate
Sat 01:34:00 PM 12.8821 -69.3547 154° Southeast  Level FlightAware Approximate
Sat 01:35:00 PM 12.7670 -69.2962 154° Southeast  Level FlightAware Approximate
Sat 01:36:00 PM 12.6519 -69.2376 154° Southeast  Level FlightAware Approximate
Sat 01:37:00 PM 12.5367 -69.1791 154° Southeast  Level FlightAware Approximate
Sat 01:38:00 PM 12.4216 -69.1207 154° Southeast  Level FlightAware Approximate
Sat 01:39:00 PM 12.3064 -69.0623 154° Southeast  Level FlightAware Approximate
Sat 01:40:00 PM 12.1912 -69.0040 154° Southeast  Level FlightAware Approximate
Sat 01:41:00 PM 12.0787 -68.9406 150° Southeast  Level FlightAware Approximate
Sat 01:42:00 PM 11.9656 -68.8782 152° Southeast  Level FlightAware Approximate
Sat 01:43:00 PM 11.8517 -68.8175 154° Southeast  Level FlightAware Approximate
Sat 01:44:00 PM 11.7362 -68.7598 154° Southeast  Level FlightAware Approximate
Sat 01:45:00 PM 11.6208 -68.7021 154° Southeast  Level FlightAware Approximate
Sat 01:46:00 PM 11.5060 -68.6433 149° Southeast  Level FlightAware Approximate
Sat 01:47:00 PM 11.3964 -68.5748 149° Southeast  Level FlightAware Approximate
Sat 01:48:00 PM 11.2817 -68.5158 154° Southeast  Level FlightAware Approximate
Sat 01:49:00 PM 11.1663 -68.4581 154° Southeast  Level FlightAware Approximate
Sat 01:50:00 PM 11.0509 -68.4004 154° Southeast  Level FlightAware Approximate
Sat 01:51:00 PM 10.9356 -68.3428 154° Southeast  Level FlightAware Approximate
Sat 01:52:00 PM 10.8209 -68.2838 151° Southeast  Level FlightAware Approximate
Sat 01:53:00 PM 10.7080 -68.2211 151° Southeast  Level FlightAware Approximate
Sat 01:54:00 PM 10.5948 -68.1593 152° Southeast  Level FlightAware Approximate
Sat 01:55:00 PM 10.4788 -68.1040 162° South  Level FlightAware Approximate
Sat 01:56:00 PM 10.3699 -68.0355 147° Southeast  Level FlightAware Approximate
Sat 01:57:00 PM 10.2550 -67.9858 154° Southeast  Level FlightAware Approximate
Sat 01:58:00 PM 10.1500 -67.9167 144° Southeast  Level FlightAware Approximate
Sat 01:59:00 PM 10.1497 -67.9284 144° Southeast  Level Estimated
Sat 02:00:00 PM 10.1497 -67.9284 144° Southeast  Level Estimated
Sat 02:01:00 PM 10.1497 -67.9284 144° Southeast  Level Estimated
Sat 02:02:00 PM 10.1497 -67.9284 144° Southeast  Level Estimated
Sat 02:03:00 PM 10.1497 -67.9284 144° Southeast  Level Estimated
Sat 02:04:00 PM 10.1497 -67.9284 144° Southeast  Level Estimated
Sat 02:05:00 PM 10.1497 -67.9284 144° Southeast  Level Estimated
Sat 02:06:00 PM 10.1497 -67.9284 144° Southeast  Level Estimated
Sat 02:07:00 PM 10.1497 -67.9284 144° Southeast  Level Estimated
Sat 02:08:00 PM 10.1497 -67.9284 144° Southeast  Level Estimated
Sat 02:09:00 PM 10.1497 -67.9284 144° Southeast  Level Estimated
Sat 02:10:00 PM 10.1497 -67.9284 144° Southeast  Level Estimated
Sat 02:11:00 PM 10.1497 -67.9284 144° Southeast  Level Estimated
Sat 02:12:00 PM 10.1497 -67.9284 144° Southeast  Level Estimated
Sat 02:13:00 PM 10.1497 -67.9284 144° Southeast  Level Estimated
Sat 02:14:00 PM 10.1497 -67.9284 144° Southeast  Level Estimated
Sat 02:15:00 PM 10.1497 -67.9284 144° Southeast  Level Estimated
Sat 02:16:00 PM 10.1497 -67.9284 144° Southeast  Level Estimated
Sat 02:17:00 PM 10.1497 -67.9284 144° Southeast  Level Estimated

Login

Don't have an account? Register now (free) for customized features, flight alerts, and more!